createdAt,value
2016-11-29T00:00:35.902Z,732.19
2016-11-29T00:01:35.878Z,732.23
2016-11-29T00:02:35.852Z,732.39
2016-11-29T00:03:35.826Z,732.39
2016-11-29T00:04:35.801Z,732.37
2016-11-29T00:05:35.782Z,732.38
2016-11-29T00:06:35.750Z,732.35
2016-11-29T00:07:35.731Z,732.36
2016-11-29T00:08:35.706Z,732.35
2016-11-29T00:09:35.679Z,732.36
2016-11-29T00:10:35.648Z,732.41
2016-11-29T00:11:35.628Z,732.4
2016-11-29T00:12:35.602Z,732.4
2016-11-29T00:13:35.577Z,732.37
2016-11-29T00:14:35.545Z,732.4
2016-11-29T00:15:35.527Z,732.38
2016-11-29T00:16:35.502Z,732.45
2016-11-29T00:17:35.467Z,732.48
2016-11-29T00:18:35.442Z,732.45
2016-11-29T00:19:35.425Z,732.46
2016-11-29T00:20:35.391Z,732.46
2016-11-29T00:21:35.365Z,732.46
2016-11-29T00:22:35.346Z,732.43
2016-11-29T00:23:35.314Z,732.44
2016-11-29T00:24:35.295Z,732.46
2016-11-29T00:25:35.264Z,732.44
2016-11-29T00:26:35.237Z,732.37
2016-11-29T00:27:35.211Z,732.36
2016-11-29T00:28:35.192Z,732.36
2016-11-29T00:29:35.159Z,732.45
2016-11-29T00:30:35.140Z,732.43
2016-11-29T00:31:35.115Z,732.39
2016-11-29T00:32:35.082Z,732.51
2016-11-29T00:33:35.056Z,732.46
2016-11-29T00:34:35.030Z,732.47
2016-11-29T00:35:35.012Z,732.5
2016-11-29T00:36:34.987Z,732.49
2016-11-29T00:37:34.954Z,732.47
2016-11-29T00:38:34.928Z,732.43
2016-11-29T00:39:34.909Z,732.45
2016-11-29T00:40:34.884Z,732.53
2016-11-29T00:41:34.851Z,732.48
2016-11-29T00:42:34.825Z,732.44
2016-11-29T00:43:34.801Z,732.44
2016-11-29T00:44:34.781Z,732.32
2016-11-29T00:45:34.749Z,732.46
2016-11-29T00:46:34.723Z,732.52
2016-11-29T00:47:34.706Z,732.57
2016-11-29T00:48:34.672Z,732.45
2016-11-29T00:49:34.654Z,732.51
2016-11-29T00:50:34.628Z,732.54
2016-11-29T00:51:34.603Z,732.61
2016-11-29T00:52:34.570Z,732.54
2016-11-29T00:53:34.545Z,732.5
2016-11-29T00:54:34.526Z,732.56
2016-11-29T00:55:34.499Z,732.58
2016-11-29T00:56:34.474Z,732.48
2016-11-29T00:57:34.441Z,732.49
2016-11-29T00:58:34.423Z,732.62
2016-11-29T00:59:34.399Z,732.64
2016-11-29T01:00:34.365Z,732.55
2016-11-29T01:01:34.346Z,732.65
2016-11-29T01:02:34.314Z,732.58
2016-11-29T01:03:34.294Z,732.65
2016-11-29T01:04:34.262Z,732.58
2016-11-29T01:05:34.243Z,732.56
2016-11-29T01:06:34.216Z,732.62
2016-11-29T01:07:34.191Z,732.57
2016-11-29T01:08:34.166Z,732.62
2016-11-29T01:09:34.133Z,732.66
2016-11-29T01:10:34.107Z,732.67
2016-11-29T01:11:34.089Z,732.72
2016-11-29T01:12:34.063Z,732.74
2016-11-29T01:13:34.032Z,732.65
2016-11-29T01:14:34.012Z,732.64
2016-11-29T01:15:33.980Z,732.65
2016-11-29T01:16:33.953Z,732.69
2016-11-29T01:17:33.934Z,732.7
2016-11-29T01:18:33.909Z,732.63
2016-11-29T01:19:33.878Z,732.66
2016-11-29T01:20:33.851Z,732.63
2016-11-29T01:21:33.832Z,732.66
2016-11-29T01:22:33.807Z,732.68
2016-11-29T01:23:33.782Z,732.69
2016-11-29T01:24:33.750Z,732.63
2016-11-29T01:25:33.724Z,732.7
2016-11-29T01:26:33.706Z,732.73
2016-11-29T01:27:33.676Z,732.68
2016-11-29T01:28:33.655Z,732.69
2016-11-29T01:29:33.624Z,732.74
2016-11-29T01:30:33.598Z,732.59
2016-11-29T01:31:33.573Z,732.65
2016-11-29T01:32:33.546Z,732.69
2016-11-29T01:33:33.521Z,732.68
2016-11-29T01:34:33.504Z,732.75
2016-11-29T01:35:33.477Z,732.75
2016-11-29T01:36:33.456Z,732.63
2016-11-29T01:37:33.427Z,732.68
2016-11-29T01:38:33.395Z,732.71
2016-11-29T01:39:33.368Z,732.67
2016-11-29T01:40:33.351Z,732.63
2016-11-29T01:41:33.325Z,732.66
2016-11-29T01:42:33.300Z,732.63
2016-11-29T01:43:33.274Z,732.62
2016-11-29T01:44:33.243Z,732.65
2016-11-29T01:45:33.217Z,732.66
2016-11-29T01:46:33.198Z,732.69
2016-11-29T01:47:33.174Z,732.68
2016-11-29T01:48:33.148Z,732.7
2016-11-29T01:49:33.123Z,732.63
2016-11-29T01:50:33.097Z,732.69
2016-11-29T01:51:33.066Z,732.58
2016-11-29T01:52:33.041Z,732.62
2016-11-29T01:53:33.016Z,732.66
2016-11-29T01:54:32.998Z,732.63
2016-11-29T01:55:32.971Z,732.65
2016-11-29T01:56:32.940Z,732.64
2016-11-29T01:57:32.914Z,732.68
2016-11-29T01:58:32.895Z,732.74
2016-11-29T01:59:32.870Z,732.62
2016-11-29T02:00:32.844Z,732.73
2016-11-29T02:01:32.818Z,732.71
2016-11-29T02:02:32.787Z,732.71
2016-11-29T02:03:32.762Z,732.73
2016-11-29T02:04:32.737Z,732.73
2016-11-29T02:05:32.717Z,732.67
2016-11-29T02:06:32.692Z,732.69
2016-11-29T02:07:32.660Z,732.68
2016-11-29T02:08:32.641Z,732.64
2016-11-29T02:09:32.616Z,732.71
2016-11-29T02:10:32.592Z,732.68
2016-11-29T02:11:32.560Z,732.69
2016-11-29T02:12:32.535Z,732.73
2016-11-29T02:13:32.509Z,732.77
2016-11-29T02:14:32.484Z,732.76
2016-11-29T02:15:32.466Z,732.66
2016-11-29T02:16:32.433Z,732.69
2016-11-29T02:17:32.409Z,732.76
2016-11-29T02:18:32.389Z,732.77
2016-11-29T02:19:32.364Z,732.77
2016-11-29T02:20:32.340Z,732.78
2016-11-29T02:21:32.307Z,732.78
2016-11-29T02:22:32.288Z,732.8
2016-11-29T02:23:32.262Z,732.79
2016-11-29T02:24:32.231Z,732.75
2016-11-29T02:25:32.205Z,732.79
2016-11-29T02:26:32.179Z,732.78
2016-11-29T02:27:32.154Z,732.77
2016-11-29T02:28:32.128Z,732.7
2016-11-29T02:29:32.110Z,732.76
2016-11-29T02:30:32.078Z,732.69
2016-11-29T02:31:32.059Z,732.81
2016-11-29T02:32:32.026Z,732.78
2016-11-29T02:33:32.008Z,732.76
2016-11-29T02:34:31.982Z,732.76
2016-11-29T02:35:31.957Z,732.8
2016-11-29T02:36:31.933Z,732.76
2016-11-29T02:37:31.908Z,732.81
2016-11-29T02:38:31.876Z,732.81
2016-11-29T02:39:31.850Z,732.82
2016-11-29T02:40:31.825Z,732.89
2016-11-29T02:41:31.813Z,732.88
2016-11-29T02:42:31.775Z,732.91
2016-11-29T02:43:31.758Z,732.86
2016-11-29T02:44:31.726Z,732.96
2016-11-29T02:45:31.701Z,732.86
2016-11-29T02:46:31.677Z,732.94
2016-11-29T02:47:31.659Z,732.85
2016-11-29T02:48:31.627Z,732.88
2016-11-29T02:49:31.601Z,732.89
2016-11-29T02:50:31.578Z,732.91
2016-11-29T02:51:31.552Z,732.95
2016-11-29T02:52:31.534Z,732.94
2016-11-29T02:53:31.509Z,732.95
2016-11-29T02:54:31.484Z,732.95
2016-11-29T02:55:31.454Z,732.9
2016-11-29T02:56:31.434Z,732.91
2016-11-29T02:57:31.403Z,732.98
2016-11-29T02:58:31.379Z,733.01
2016-11-29T02:59:31.354Z,733.05
2016-11-29T03:00:31.337Z,733
2016-11-29T03:01:31.304Z,732.99
2016-11-29T03:02:31.280Z,732.99
2016-11-29T03:03:31.261Z,733
2016-11-29T03:04:31.230Z,733
2016-11-29T03:05:31.204Z,733
2016-11-29T03:06:31.180Z,733.01
2016-11-29T03:07:31.161Z,733.02
2016-11-29T03:08:31.137Z,733.02
2016-11-29T03:09:31.112Z,733.01
2016-11-29T03:10:31.087Z,733.05
2016-11-29T03:11:31.062Z,733.05
2016-11-29T03:12:31.031Z,732.99
2016-11-29T03:13:31.014Z,732.95
2016-11-29T03:14:30.980Z,733.05
2016-11-29T03:15:30.963Z,733.03
2016-11-29T03:16:30.941Z,733
2016-11-29T03:17:30.915Z,733.1
2016-11-29T03:18:30.883Z,733.08
2016-11-29T03:19:30.865Z,733.07
2016-11-29T03:20:30.835Z,733.05
2016-11-29T03:21:30.808Z,733.02
2016-11-29T03:22:30.784Z,733.08
2016-11-29T03:23:30.759Z,733
2016-11-29T03:24:30.742Z,733.01
2016-11-29T03:25:30.709Z,733.05
2016-11-29T03:26:30.692Z,733.04
2016-11-29T03:27:30.668Z,733.11
2016-11-29T03:28:30.643Z,733.08
2016-11-29T03:29:30.612Z,733.08
2016-11-29T03:30:30.594Z,733.13
2016-11-29T03:31:30.563Z,733.03
2016-11-29T03:32:30.545Z,733.06
2016-11-29T03:33:30.513Z,733.06
2016-11-29T03:34:30.489Z,733.1
2016-11-29T03:35:30.465Z,733.14
2016-11-29T03:36:30.440Z,733.15
2016-11-29T03:37:30.416Z,733.14
2016-11-29T03:38:30.399Z,733.14
2016-11-29T03:39:30.368Z,733.1
2016-11-29T03:40:30.345Z,733.14
2016-11-29T03:41:30.319Z,733.17
2016-11-29T03:42:30.302Z,733.14
2016-11-29T03:43:30.277Z,733.22
2016-11-29T03:44:30.253Z,733.23
2016-11-29T03:45:30.222Z,733.22
2016-11-29T03:46:30.205Z,733.25
2016-11-29T03:47:30.180Z,733.24
2016-11-29T03:48:30.148Z,733.25
2016-11-29T03:49:30.124Z,733.2
2016-11-29T03:50:30.101Z,733.22
2016-11-29T03:51:30.082Z,733.23
2016-11-29T03:52:30.058Z,733.27
2016-11-29T03:53:30.034Z,733.21
2016-11-29T03:54:30.008Z,733.28
2016-11-29T03:55:29.978Z,733.23
2016-11-29T03:56:29.952Z,733.23
2016-11-29T03:57:29.936Z,733.25
2016-11-29T03:58:29.910Z,733.25
2016-11-29T03:59:29.880Z,733.21
2016-11-29T04:00:29.854Z,733.24
2016-11-29T04:01:29.838Z,733.3
2016-11-29T04:02:29.805Z,733.21
2016-11-29T04:03:29.781Z,733.27
2016-11-29T04:04:29.764Z,733.29
2016-11-29T04:05:29.739Z,733.31
2016-11-29T04:06:29.715Z,733.29
2016-11-29T04:07:29.685Z,733.28
2016-11-29T04:08:29.668Z,733.31
2016-11-29T04:09:29.642Z,733.28
2016-11-29T04:10:29.619Z,733.32
2016-11-29T04:11:29.587Z,733.24
2016-11-29T04:12:29.563Z,733.27
2016-11-29T04:13:29.546Z,733.27
2016-11-29T04:14:29.516Z,733.3
2016-11-29T04:15:29.498Z,733.33
2016-11-29T04:16:29.467Z,733.36
2016-11-29T04:17:29.443Z,733.33
2016-11-29T04:18:29.426Z,733.34
2016-11-29T04:19:29.402Z,733.31
2016-11-29T04:20:29.371Z,733.37
2016-11-29T04:21:29.346Z,733.33
2016-11-29T04:22:29.321Z,733.35
2016-11-29T04:23:29.298Z,733.36
2016-11-29T04:24:29.273Z,733.34
2016-11-29T04:25:29.248Z,733.35
2016-11-29T04:26:29.224Z,733.32
2016-11-29T04:27:29.203Z,733.39
2016-11-29T04:28:29.175Z,733.41
2016-11-29T04:29:29.151Z,733.41
2016-11-29T04:30:29.127Z,733.44
2016-11-29T04:31:29.102Z,733.5
2016-11-29T04:32:29.078Z,733.52
2016-11-29T04:33:29.053Z,733.49
2016-11-29T04:34:29.029Z,733.49
2016-11-29T04:35:29.006Z,733.52
2016-11-29T04:36:28.981Z,733.53
2016-11-29T04:37:28.957Z,733.53
2016-11-29T04:38:28.933Z,733.52
2016-11-29T04:39:28.909Z,733.56
2016-11-29T04:40:28.885Z,733.56
2016-11-29T04:41:28.862Z,733.55
2016-11-29T04:42:28.836Z,733.57
2016-11-29T04:43:28.813Z,733.6
2016-11-29T04:44:28.790Z,733.54
2016-11-29T04:45:28.765Z,733.53
2016-11-29T04:46:28.742Z,733.6
2016-11-29T04:47:28.718Z,733.6
2016-11-29T04:48:28.693Z,733.6
2016-11-29T04:49:28.669Z,733.59
2016-11-29T04:50:28.646Z,733.64
2016-11-29T04:51:28.621Z,733.6
2016-11-29T04:52:28.598Z,733.62
2016-11-29T04:53:28.575Z,733.63
2016-11-29T04:54:28.549Z,733.68
2016-11-29T04:55:28.526Z,733.65
2016-11-29T04:56:28.501Z,733.7
2016-11-29T04:57:28.479Z,733.79
2016-11-29T04:58:28.454Z,733.79
2016-11-29T04:59:28.431Z,733.75
2016-11-29T05:00:28.406Z,733.72
2016-11-29T05:01:28.382Z,733.74
2016-11-29T05:02:28.360Z,733.77
2016-11-29T05:03:28.336Z,733.69
2016-11-29T05:04:28.311Z,733.71
2016-11-29T05:05:28.289Z,733.73
2016-11-29T05:06:28.266Z,733.8
2016-11-29T05:07:28.240Z,733.82
2016-11-29T05:08:28.217Z,733.71
2016-11-29T05:09:28.194Z,733.75
2016-11-29T05:10:28.171Z,733.79
2016-11-29T05:11:28.146Z,733.75
2016-11-29T05:12:28.123Z,733.84
2016-11-29T05:13:28.101Z,733.92
2016-11-29T05:14:28.077Z,733.78
2016-11-29T05:15:28.052Z,733.85
2016-11-29T05:16:28.029Z,733.82
2016-11-29T05:17:28.006Z,733.75
2016-11-29T05:18:27.982Z,733.93
2016-11-29T05:19:27.960Z,733.88
2016-11-29T05:20:27.935Z,733.86
2016-11-29T05:21:27.913Z,733.93
2016-11-29T05:22:27.889Z,733.88
2016-11-29T05:23:27.866Z,733.92
2016-11-29T05:24:27.842Z,733.78
2016-11-29T05:25:27.820Z,733.97
2016-11-29T05:26:27.796Z,733.87
2016-11-29T05:27:27.772Z,733.92
2016-11-29T05:28:27.749Z,733.95
2016-11-29T05:29:27.726Z,733.88
2016-11-29T05:30:27.703Z,733.91
2016-11-29T05:31:27.679Z,733.99
2016-11-29T05:32:27.657Z,733.97
2016-11-29T05:33:27.632Z,734.05
2016-11-29T05:34:27.611Z,733.85
2016-11-29T05:35:27.587Z,733.98
2016-11-29T05:36:27.564Z,733.95
2016-11-29T05:37:27.540Z,733.98
2016-11-29T05:38:27.517Z,733.97
2016-11-29T05:39:27.496Z,733.95
2016-11-29T05:40:27.471Z,733.97
2016-11-29T05:41:27.448Z,733.96
2016-11-29T05:42:27.427Z,734.05
2016-11-29T05:43:27.404Z,734.01
2016-11-29T05:44:27.387Z,734.04
2016-11-29T05:45:27.357Z,734.01
2016-11-29T05:46:27.335Z,734
2016-11-29T05:47:27.319Z,733.99
2016-11-29T05:48:27.289Z,734.02
2016-11-29T05:49:27.267Z,734.02
2016-11-29T05:51:27.219Z,733.95
2016-11-29T05:52:27.201Z,734.12
2016-11-29T05:53:27.174Z,733.99
2016-11-29T05:54:27.159Z,734.08
2016-11-29T05:55:27.135Z,734.04
2016-11-29T05:56:27.105Z,734.09
2016-11-29T05:57:27.090Z,734.03
2016-11-29T05:58:27.061Z,733.98
2016-11-29T05:59:27.036Z,734.2
2016-11-29T06:00:27.021Z,734.08
2016-11-29T06:01:26.999Z,734.1
2016-11-29T06:02:26.967Z,734.13
2016-11-29T06:03:26.948Z,734.03
2016-11-29T06:04:26.922Z,734.12
2016-11-29T06:05:26.901Z,734.06
2016-11-29T06:06:26.876Z,734.12
2016-11-29T06:07:26.853Z,734.13
2016-11-29T06:08:26.838Z,734.1
2016-11-29T06:09:26.808Z,734.1
2016-11-29T06:10:26.793Z,734.12
2016-11-29T06:11:26.768Z,734.14
2016-11-29T06:12:26.742Z,734.16
2016-11-29T06:13:26.724Z,734.13
2016-11-29T06:14:26.702Z,734.16
2016-11-29T06:15:26.681Z,734.16
2016-11-29T06:16:26.657Z,734.17
2016-11-29T06:17:26.835Z,734.2
2016-11-29T06:18:26.604Z,734.2
2016-11-29T06:19:26.589Z,734.19
2016-11-29T06:20:26.565Z,734.18
2016-11-29T06:21:26.543Z,734.23
2016-11-29T06:22:26.520Z,734.24
2016-11-29T06:23:26.490Z,734.23
2016-11-29T06:24:26.474Z,734.31
2016-11-29T06:25:26.445Z,734.27
2016-11-29T06:26:26.426Z,734.32
2016-11-29T06:27:26.407Z,734.3
2016-11-29T06:28:26.384Z,734.35
2016-11-29T06:29:26.361Z,734.34
2016-11-29T06:30:26.332Z,734.37
2016-11-29T06:31:26.316Z,734.34
2016-11-29T06:32:26.293Z,734.43
2016-11-29T06:33:26.270Z,734.44
2016-11-29T06:34:26.248Z,734.41
2016-11-29T06:35:26.224Z,734.43
2016-11-29T06:36:26.196Z,734.48
2016-11-29T06:37:26.173Z,734.47
2016-11-29T06:38:26.151Z,734.45
2016-11-29T06:39:26.128Z,734.54
2016-11-29T06:40:26.106Z,734.46
2016-11-29T06:41:26.083Z,734.58
2016-11-29T06:42:26.059Z,734.46
2016-11-29T06:43:26.041Z,734.51
2016-11-29T06:44:26.022Z,734.51
2016-11-29T06:45:26.201Z,734.56
2016-11-29T06:46:25.970Z,734.56
2016-11-29T06:47:25.947Z,734.52
2016-11-29T06:48:25.925Z,734.53
2016-11-29T06:49:25.902Z,734.6
2016-11-29T06:50:25.886Z,734.64
2016-11-29T06:51:25.863Z,734.62
2016-11-29T06:52:25.841Z,734.63
2016-11-29T06:53:25.811Z,734.63
2016-11-29T06:54:25.796Z,734.63
2016-11-29T06:55:25.767Z,734.61
2016-11-29T06:56:25.745Z,734.7
2016-11-29T06:57:25.729Z,734.66
2016-11-29T06:58:25.707Z,734.74
2016-11-29T06:59:25.685Z,734.69
2016-11-29T07:00:25.657Z,734.69
2016-11-29T07:01:25.635Z,734.7
2016-11-29T07:02:25.611Z,734.7
2016-11-29T07:03:25.598Z,734.76
2016-11-29T07:04:25.575Z,734.77
2016-11-29T07:05:25.546Z,734.71
2016-11-29T07:06:25.526Z,734.78
2016-11-29T07:07:25.510Z,734.76
2016-11-29T07:08:25.481Z,734.78
2016-11-29T07:09:25.460Z,734.83
2016-11-29T07:10:25.439Z,734.74
2016-11-29T07:11:25.423Z,734.88
2016-11-29T07:12:25.394Z,734.85
2016-11-29T07:13:25.380Z,734.92
2016-11-29T07:14:25.351Z,734.84
2016-11-29T07:15:25.336Z,734.93
2016-11-29T07:16:25.314Z,734.92
2016-11-29T07:17:25.293Z,734.86
2016-11-29T07:18:25.266Z,734.89
2016-11-29T07:19:25.243Z,734.95
2016-11-29T07:20:25.223Z,734.84
2016-11-29T07:21:25.202Z,734.91
2016-11-29T07:22:25.188Z,735
2016-11-29T07:23:25.159Z,734.97
2016-11-29T07:24:25.138Z,734.95
2016-11-29T07:25:25.119Z,735
2016-11-29T07:26:25.097Z,734.97
2016-11-29T07:27:25.083Z,734.94
2016-11-29T07:28:25.062Z,735.05
2016-11-29T07:29:25.042Z,735.06
2016-11-29T07:30:25.020Z,735.08
2016-11-29T07:31:25.000Z,734.95
2016-11-29T07:32:24.980Z,735.06
2016-11-29T07:33:24.961Z,735.02
2016-11-29T07:34:24.939Z,735.03
2016-11-29T07:35:24.918Z,735.08
2016-11-29T07:36:24.898Z,735.09
2016-11-29T07:37:24.877Z,735.07
2016-11-29T07:38:24.849Z,735.07
2016-11-29T07:39:24.837Z,735.08
2016-11-29T07:40:24.816Z,735.03
2016-11-29T07:41:24.796Z,735.11
2016-11-29T07:42:24.776Z,735.19
2016-11-29T07:43:24.756Z,735.22
2016-11-29T07:44:24.735Z,735.08
2016-11-29T07:45:24.715Z,735.07
2016-11-29T07:46:24.696Z,735.15
2016-11-29T07:47:24.676Z,735.12
2016-11-29T07:48:24.647Z,735.14
2016-11-29T07:49:24.628Z,735.17
2016-11-29T07:50:24.608Z,735.18
2016-11-29T07:51:24.596Z,735.19
2016-11-29T07:52:24.575Z,735.27
2016-11-29T07:53:24.556Z,735.24
2016-11-29T07:54:24.529Z,735.26
2016-11-29T07:55:24.510Z,735.24
2016-11-29T07:56:24.496Z,735.28
2016-11-29T07:57:24.471Z,735.19
2016-11-29T07:58:24.459Z,735.29
2016-11-29T07:59:24.437Z,735.33
2016-11-29T08:00:24.412Z,735.26
2016-11-29T08:01:24.393Z,735.33
2016-11-29T08:02:24.380Z,735.4
2016-11-29T08:03:24.360Z,735.43
2016-11-29T08:04:24.341Z,735.41
2016-11-29T08:05:24.340Z,735.4
2016-11-29T08:06:24.303Z,735.45
2016-11-29T08:07:24.278Z,735.41
2016-11-29T08:08:24.258Z,735.38
2016-11-29T08:09:24.239Z,735.38
2016-11-29T08:10:24.227Z,735.39
2016-11-29T08:11:24.201Z,735.4
2016-11-29T08:12:24.190Z,735.4
2016-11-29T08:13:24.171Z,735.41
2016-11-29T08:14:24.144Z,735.41
2016-11-29T08:15:24.125Z,735.52
2016-11-29T08:16:24.114Z,735.57
2016-11-29T08:17:24.094Z,735.47
2016-11-29T08:18:24.070Z,735.53
2016-11-29T08:19:24.058Z,735.53
2016-11-29T08:20:24.039Z,735.57
2016-11-29T08:21:24.012Z,735.55
2016-11-29T08:22:24.002Z,735.55
2016-11-29T08:23:23.983Z,735.58
2016-11-29T08:24:23.957Z,735.58
2016-11-29T08:25:23.945Z,735.59
2016-11-29T08:26:23.920Z,735.61
2016-11-29T08:27:23.909Z,735.62
2016-11-29T08:28:23.884Z,735.7
2016-11-29T08:29:23.866Z,735.65
2016-11-29T08:30:23.849Z,735.6
2016-11-29T08:31:23.831Z,735.68
2016-11-29T08:32:23.820Z,735.73
2016-11-29T08:33:23.796Z,735.73
2016-11-29T08:34:23.785Z,735.79
2016-11-29T08:35:23.762Z,735.72
2016-11-29T08:36:23.750Z,735.69
2016-11-29T08:37:23.726Z,735.7
2016-11-29T08:38:23.708Z,735.73
2016-11-29T08:39:23.697Z,735.76
2016-11-29T08:40:23.674Z,735.73
2016-11-29T08:41:23.655Z,735.84
2016-11-29T08:42:23.638Z,735.78
2016-11-29T08:43:23.620Z,735.8
2016-11-29T08:44:23.603Z,735.88
2016-11-29T08:45:23.592Z,735.84
2016-11-29T08:46:23.574Z,735.87
2016-11-29T08:47:23.557Z,735.83
2016-11-29T08:48:23.539Z,735.94
2016-11-29T08:49:23.515Z,735.93
2016-11-29T08:50:23.503Z,735.93
2016-11-29T08:51:23.486Z,735.87
2016-11-29T08:52:23.469Z,735.91
2016-11-29T08:53:23.445Z,735.95
2016-11-29T08:54:23.434Z,736.08
2016-11-29T08:55:23.417Z,735.96
2016-11-29T08:56:23.393Z,736.02
2016-11-29T08:57:23.377Z,735.96
2016-11-29T08:58:23.358Z,735.94
2016-11-29T08:59:23.340Z,736.01
2016-11-29T09:00:23.331Z,735.97
2016-11-29T09:01:23.313Z,736.02
2016-11-29T09:02:23.297Z,736.05
2016-11-29T09:03:23.280Z,736.03
2016-11-29T09:04:23.255Z,736.05
2016-11-29T09:05:23.245Z,736.07
2016-11-29T09:06:23.221Z,736.07
2016-11-29T09:07:23.204Z,736.11
2016-11-29T09:08:23.188Z,736.05
2016-11-29T09:09:23.169Z,735.98
2016-11-29T09:10:23.153Z,736.12
2016-11-29T09:11:23.142Z,736.14
2016-11-29T09:12:23.124Z,736.16
2016-11-29T09:13:23.107Z,736.19
2016-11-29T09:14:23.083Z,736.2
2016-11-29T09:15:23.167Z,736.21
2016-11-29T09:16:23.055Z,736.21
2016-11-29T09:17:23.039Z,736.18
2016-11-29T09:18:23.015Z,736.18
2016-11-29T09:19:23.005Z,736.17
2016-11-29T09:20:22.981Z,736.22
2016-11-29T09:21:22.965Z,736.28
2016-11-29T09:22:22.955Z,736.29
2016-11-29T09:23:22.931Z,736.29
2016-11-29T09:24:22.914Z,736.3
2016-11-29T09:25:22.905Z,736.31
2016-11-29T09:26:22.889Z,736.31
2016-11-29T09:27:22.865Z,736.29
2016-11-29T09:28:22.856Z,736.24
2016-11-29T09:29:22.835Z,736.29
2016-11-29T09:30:22.823Z,736.36
2016-11-29T09:31:22.807Z,736.39
2016-11-29T09:32:22.785Z,736.38
2016-11-29T09:33:22.776Z,736.25
2016-11-29T09:34:22.759Z,736.38
2016-11-29T09:35:22.737Z,736.43
2016-11-29T09:36:22.720Z,736.35
2016-11-29T09:37:22.712Z,736.29
2016-11-29T09:38:22.694Z,736.38
2016-11-29T09:39:22.679Z,736.42
2016-11-29T09:40:22.662Z,736.36
2016-11-29T09:41:22.638Z,736.38
2016-11-29T09:42:22.629Z,736.38
2016-11-29T09:43:22.607Z,736.39
2016-11-29T09:44:22.598Z,736.35
2016-11-29T09:45:22.581Z,736.3
2016-11-29T09:46:22.559Z,736.42
2016-11-29T09:47:22.543Z,736.32
2016-11-29T09:48:22.535Z,736.33
2016-11-29T09:49:22.512Z,736.34
2016-11-29T09:50:22.503Z,736.43
2016-11-29T09:51:22.489Z,736.37
2016-11-29T09:52:22.472Z,736.41
2016-11-29T09:53:22.457Z,736.39
2016-11-29T09:54:22.442Z,736.4
2016-11-29T09:55:22.420Z,736.4
2016-11-29T09:56:22.410Z,736.43
2016-11-29T09:57:22.395Z,736.4
2016-11-29T09:58:22.379Z,736.44
2016-11-29T09:59:22.358Z,736.43
2016-11-29T10:00:22.340Z,736.43
2016-11-29T10:01:22.325Z,736.42
2016-11-29T10:02:22.317Z,736.42
2016-11-29T10:03:22.301Z,736.4
2016-11-29T10:04:22.285Z,736.46
2016-11-29T10:05:22.270Z,736.39
2016-11-29T10:06:22.247Z,736.41
2016-11-29T10:07:22.238Z,736.38
2016-11-29T10:08:22.223Z,736.46
2016-11-29T10:09:22.208Z,736.42
2016-11-29T10:10:22.193Z,736.36
2016-11-29T10:11:22.177Z,736.41
2016-11-29T10:12:22.162Z,736.39
2016-11-29T10:13:22.141Z,736.44
2016-11-29T10:14:22.131Z,736.43
2016-11-29T10:15:22.116Z,736.46
2016-11-29T10:16:22.094Z,736.43
2016-11-29T10:17:22.078Z,736.39
2016-11-29T10:18:22.069Z,736.46
2016-11-29T10:19:22.047Z,736.42
2016-11-29T10:20:22.037Z,736.46
2016-11-29T10:21:22.022Z,736.4
2016-11-29T10:22:21.998Z,736.44
2016-11-29T10:23:21.990Z,736.43
2016-11-29T10:24:21.974Z,736.5
2016-11-29T10:25:21.950Z,736.45
2016-11-29T10:26:21.934Z,736.44
2016-11-29T10:27:21.925Z,736.46
2016-11-29T10:28:21.910Z,736.5
2016-11-29T10:29:21.887Z,736.46
2016-11-29T10:30:21.877Z,736.43
2016-11-29T10:31:21.862Z,736.48
2016-11-29T10:32:21.840Z,736.47
2016-11-29T10:33:21.824Z,736.46
2016-11-29T10:34:21.807Z,736.5
2016-11-29T10:35:21.792Z,736.47
2016-11-29T10:36:21.782Z,736.5
2016-11-29T10:37:21.766Z,736.46
2016-11-29T10:38:21.744Z,736.46
2016-11-29T10:39:21.727Z,736.44
2016-11-29T10:40:21.717Z,736.43
2016-11-29T10:41:21.694Z,736.5
2016-11-29T10:42:21.679Z,736.47
2016-11-29T10:43:21.663Z,736.52
2016-11-29T10:44:21.645Z,736.48
2016-11-29T10:45:21.635Z,736.49
2016-11-29T10:46:21.620Z,736.47
2016-11-29T10:47:21.602Z,736.44
2016-11-29T10:48:21.586Z,736.45
2016-11-29T10:49:21.563Z,736.42
2016-11-29T10:50:21.547Z,736.49
2016-11-29T10:51:21.528Z,736.46
2016-11-29T10:52:21.519Z,736.39
2016-11-29T10:53:21.503Z,736.44
2016-11-29T10:54:21.480Z,736.39
2016-11-29T10:55:21.470Z,736.43
2016-11-29T10:56:21.446Z,736.43
2016-11-29T10:57:21.437Z,736.49
2016-11-29T10:58:21.413Z,736.46
2016-11-29T10:59:21.397Z,736.47
2016-11-29T11:00:21.379Z,736.49
2016-11-29T11:01:21.370Z,736.5
2016-11-29T11:02:21.347Z,736.49
2016-11-29T11:03:21.336Z,736.48
2016-11-29T11:04:21.316Z,736.5
2016-11-29T11:05:21.298Z,736.52
2016-11-29T11:06:21.288Z,736.51
2016-11-29T11:07:21.265Z,736.51
2016-11-29T11:08:21.257Z,736.5
2016-11-29T11:09:21.237Z,736.51
2016-11-29T11:10:21.225Z,736.49
2016-11-29T11:11:21.202Z,736.52
2016-11-29T11:12:21.193Z,736.48
2016-11-29T11:13:21.169Z,736.51
2016-11-29T11:14:21.160Z,736.53
2016-11-29T11:15:21.137Z,736.49
2016-11-29T11:16:21.128Z,736.5
2016-11-29T11:17:21.104Z,736.53
2016-11-29T11:18:21.096Z,736.5
2016-11-29T11:19:21.081Z,736.59
2016-11-29T11:20:21.064Z,736.56
2016-11-29T11:21:21.041Z,736.56
2016-11-29T11:22:21.033Z,736.54
2016-11-29T11:23:21.011Z,736.51
2016-11-29T11:24:21.002Z,736.57
2016-11-29T11:25:20.978Z,736.56
2016-11-29T11:26:20.976Z,736.53
2016-11-29T11:27:20.947Z,736.58
2016-11-29T11:28:20.931Z,736.59
2016-11-29T11:29:20.923Z,736.62
2016-11-29T11:30:20.901Z,736.58
2016-11-29T11:31:20.890Z,736.62
2016-11-29T11:32:20.869Z,736.62
2016-11-29T11:33:20.852Z,736.59
2016-11-29T11:34:20.837Z,736.58
2016-11-29T11:35:20.820Z,736.63
2016-11-29T11:36:20.811Z,736.58
2016-11-29T11:37:27.052Z,736.66
2016-11-29T11:38:20.777Z,736.63
2016-11-29T11:39:20.758Z,736.59
2016-11-29T11:40:20.745Z,736.58
2016-11-29T11:41:20.729Z,736.64
2016-11-29T11:42:20.712Z,736.6
2016-11-29T11:43:20.696Z,736.63
2016-11-29T11:44:20.679Z,736.62
2016-11-29T11:45:20.656Z,736.67
2016-11-29T11:46:20.647Z,736.64
2016-11-29T11:47:20.624Z,736.6
2016-11-29T11:48:20.615Z,736.66
2016-11-29T11:49:20.597Z,736.61
2016-11-29T11:50:20.596Z,736.66
2016-11-29T11:51:20.565Z,736.64
2016-11-29T11:52:20.548Z,736.62
2016-11-29T11:53:20.531Z,736.67
2016-11-29T11:54:20.519Z,736.64
2016-11-29T11:55:20.492Z,736.65
2016-11-29T11:56:20.475Z,736.66
2016-11-29T11:57:20.464Z,736.66
2016-11-29T11:58:20.648Z,736.63
2016-11-29T11:59:20.424Z,736.65
2016-11-29T12:00:20.408Z,736.64
2016-11-29T12:01:20.390Z,736.63
2016-11-29T12:02:20.374Z,736.68
2016-11-29T12:03:20.365Z,736.67
2016-11-29T12:04:20.341Z,736.65
2016-11-29T12:05:20.326Z,736.59
2016-11-29T12:06:20.307Z,736.64
2016-11-29T12:07:20.291Z,736.66
2016-11-29T12:08:20.280Z,736.7
2016-11-29T12:09:20.264Z,736.71
2016-11-29T12:10:20.248Z,736.67
2016-11-29T12:11:20.225Z,736.7
2016-11-29T12:12:20.214Z,736.73
2016-11-29T12:13:20.191Z,736.73
2016-11-29T12:14:20.190Z,736.73
2016-11-29T12:15:20.161Z,736.71
2016-11-29T12:16:20.142Z,736.62
2016-11-29T12:17:20.132Z,736.66
2016-11-29T12:18:20.109Z,736.71
2016-11-29T12:19:20.097Z,736.73
2016-11-29T12:20:20.080Z,736.72
2016-11-29T12:21:20.057Z,736.69
2016-11-29T12:22:20.039Z,736.69
2016-11-29T12:23:20.033Z,736.78
2016-11-29T12:24:20.007Z,736.68
2016-11-29T12:25:19.996Z,736.7
2016-11-29T12:26:19.975Z,736.72
2016-11-29T12:27:19.955Z,736.73
2016-11-29T12:28:19.938Z,736.7
2016-11-29T12:29:19.922Z,736.7
2016-11-29T12:30:19.904Z,736.66
2016-11-29T12:31:19.889Z,736.66
2016-11-29T12:32:19.878Z,736.69